Terminal Aerodrome Forecast
Issued by NWS Charleston, SC

Home | Current Version | Previous Version | Text Only | Print | Product List | Glossary On
Versions: 1 2 3 4 5 6 7 8 9 10 11 12 13 14 15
899
FTUS42 KCHS 050536
TAFCHS
TAF
KCHS 050536Z 0506/0606 18008KT 6SM -RA SCT015 OVC030 WS020/21035KT
     FM050800 30008KT 5SM -RA BR SCT008 OVC015
     FM051030 34005KT 5SM -RA BR SCT004 OVC008
     FM051700 03008KT P6SM SCT009 OVC015
     FM060300 06006KT 5SM -RA BR SCT003 OVC009=

USA.gov is the U.S. government's official web portal to all federal, state and local government web resources and services.